Kezdőlap
METAR-TAF:

METAR-TAF

Repülőterek :

Tarawa, Kiribati

földrajzi szélesség: 01-21N, földrajzi hosszúság: 172-55E, magasság: 2 m

Jelenlegi meteorológiai megfigyelések

A jelentés 1 órával és 2 perccel ezelõtt készült, 17:00 UTC
Északkeleti szél 7 kt
Hőmérséklet 28°C
Páratartalom 84%
Légköri nyomás 1008 hPa
Látótávolság 10 km, vagy több
Szórványos felhőzet 30000 lábon

METAR: NGTA 201700Z 04007KT 9999 FWE017TCU SCT300 28/25 Q1008 RERA

Idő: 08:02 (18:02 UTC)

Előrejelzés

A jelentés 43 perccel ezelõtt készült, 17:19 UTC
Az előrejelzés 20-én 18 óra UTC és 21-én 18 óra UTC között érvényes
Keleti szél 5 kt
Látótávolság 10 km, vagy több
Kevés felhő 3000 lábon

TAF: NGTA 201719Z 2018/2118 08005KT 9999 FEW030

Meteorológiai megfigyelések és előrejelzések több, mint 4000 repülőtéren (METAR és TAF jelentéseket).

A térképen piros és sárga pontok jelzik az elérhető meteorológiai állomásokat.

Mozgassa az egeret a pont fölött, hogy megjelenjen az állomás neve.

Azután kattintson az időjárási megfigyelések és előrejelzések megtekintéséhez.

A térkép megváltoztatása: kattintson a fekete keresztel jelölt zöld gombra ráközelítéshez, a vonallal jelölt zöld gombra távolításhoz, vagy a zöld nyilakra a szomszédos térképek eléréséhez.


METAR-TAF: